Time;durP1;ratioP1;P1;durP2;ratioP2;P2;SDS_P1;SDS_P2;PMS_P1;PMS_P2;Temp;Humidity;BMP_temperature;BMP_pressure;BME280_temperature;BME280_humidity;BME280_pressure;Samples;Min_cycle;Max_cycle;Signal;HPM_P1;HPM_P2
2021/12/27 00:08:40;;;;;;;22.08;15.43;;;2.80;99.90;;;;;;6010356;23;20015;-88
2021/12/27 00:11:25;;;;;;;22.38;16.17;;;2.70;99.90;;;;;;5987883;23;20462;-89
2021/12/27 00:14:38;;;;;;;;;;;;;;;;;;;;;
2021/12/27 00:17:39;;;;;;;23.40;14.43;;;2.80;99.90;;;;;;6134727;23;20080;-89
2021/12/27 00:20:27;;;;;;;;;;;;;;;;;;;;;
2021/12/27 00:23:30;;;;;;;22.80;15.15;;;2.80;99.90;;;;;;6158216;23;20076;-89
2021/12/27 00:26:41;;;;;;;;;;;;;;;;;;;;;
2021/12/27 00:29:40;;;;;;;;;;;;;;;;;;;;;
2021/12/27 00:32:48;;;;;;;;;;;;;;;;;;;;;
2021/12/27 00:35:47;;;;;;;21.55;14.85;;;2.90;99.90;;;;;;6152543;23;20072;-89
2021/12/27 00:38:27;;;;;;;23.48;15.95;;;2.90;99.90;;;;;;6132144;23;20044;-89
2021/12/27 00:41:13;;;;;;;23.27;14.75;;;2.90;99.90;;;;;;6109228;23;20018;-89
2021/12/27 00:44:00;;;;;;;21.20;14.52;;;2.90;99.90;;;;;;6132143;23;20092;-89
2021/12/27 00:47:03;;;;;;;21.55;14.68;;;2.90;99.90;;;;;;6132805;23;20005;-89
2021/12/27 00:52:42;;;;;;;;;;;;;;;;;;;;;
2021/12/27 00:55:35;;;;;;;24.23;15.88;;;3.00;99.90;;;;;;6157099;23;20017;-90
2021/12/27 00:58:33;;;;;;;;;;;;;;;;;;;;;
2021/12/27 01:01:25;;;;;;;23.23;15.82;;;3.00;99.90;;;;;;6160231;23;20080;-87
2021/12/27 01:04:08;;;;;;;;;;;3.00;99.90;;;;;;6131071;23;20010;-89
2021/12/27 01:07:04;;;;;;;25.30;16.15;;;3.00;99.90;;;;;;6134846;23;19896;-90
2021/12/27 01:16:12;;;;;;;22.58;15.55;;;3.00;99.90;;;;;;6093119;23;20451;-89
2021/12/27 01:19:18;;;;;;;;;;;;;;;;;;;;;
2021/12/27 01:22:03;;;;;;;;;;;;;;;;;;;;;
2021/12/27 01:24:44;;;;;;;;;;;;;;;;;;;;;
2021/12/27 01:27:52;;;;;;;20.48;14.55;;;3.10;99.90;;;;;;6158408;23;20084;-89
2021/12/27 01:30:56;;;;;;;;;;;;;;;;;;;;;
2021/12/27 01:33:48;;;;;;;;;;;;;;;;;;;;;
2021/12/27 01:36:51;;;;;;;;;;;;;;;;;;;;;
2021/12/27 01:42:57;;;;;;;24.35;16.83;;;3.10;99.90;;;;;;6132649;23;20005;-89
2021/12/27 01:52:05;;;;;;;;;;;;;;;;;;;;;
2021/12/27 01:54:52;;;;;;;21.20;15.18;;;3.10;99.90;;;;;;6134700;23;20121;-89
2021/12/27 01:57:51;;;;;;;;;;;;;;;;;;;;;
2021/12/27 02:00:34;;;;;;;24.60;16.80;;;3.20;99.90;;;;;;6157690;23;20053;-89
2021/12/27 02:03:03;;;;;;;22.23;14.80;;;3.20;99.90;;;;;;6132117;23;19997;-90
2021/12/27 02:05:39;;;;;;;22.17;16.25;;;3.30;99.90;;;;;;6131722;23;20483;-90
2021/12/27 02:08:35;;;;;;;23.95;16.33;;;3.20;99.90;;;;;;6109064;23;20070;-88
2021/12/27 02:11:46;;;;;;;22.67;15.70;;;3.20;99.90;;;;;;6116640;23;20061;-89
2021/12/27 02:14:24;;;;;;;21.80;14.85;;;3.20;99.90;;;;;;6156838;23;20006;-89
2021/12/27 02:17:17;;;;;;;;;;;;;;;;;;;;;
2021/12/27 02:19:56;;;;;;;22.92;16.20;;;3.20;99.90;;;;;;6134331;23;20077;-89
2021/12/27 02:23:10;;;;;;;;;;;;;;;;;;;;;
2021/12/27 02:25:52;;;;;;;23.73;16.02;;;3.20;99.90;;;;;;6179398;23;20017;-89
2021/12/27 02:31:27;;;;;;;20.17;13.93;;;3.20;99.90;;;;;;6163246;23;20052;-88
2021/12/27 02:34:08;;;;;;;;;;;;;;;;;;;;;
2021/12/27 02:36:56;;;;;;;22.75;15.25;;;3.30;99.90;;;;;;6171158;23;20419;-90
2021/12/27 02:39:30;;;;;;;21.63;14.95;;;3.20;99.90;;;;;;6141340;23;20100;-91
2021/12/27 02:42:24;;;;;;;22.98;16.20;;;3.30;99.90;;;;;;6161492;23;20005;-89
2021/12/27 02:44:54;;;;;;;21.83;15.25;;;3.30;99.90;;;;;;6160954;23;20008;-89
2021/12/27 02:47:25;;;;;;;22.17;16.58;;;3.30;99.90;;;;;;6160881;23;20450;-90
2021/12/27 02:50:11;;;;;;;22.25;15.30;;;3.30;99.90;;;;;;6136336;23;20327;-90
2021/12/27 02:53:19;;;;;;;;;;;;;;;;;;;;;
2021/12/27 02:56:22;;;;;;;;;;;;;;;;;;;;;
2021/12/27 03:01:47;;;;;;;20.85;15.05;;;3.40;99.90;;;;;;6187622;23;20032;-90
2021/12/27 03:04:22;;;;;;;;;;;;;;;;;;;;;
2021/12/27 03:07:16;;;;;;;21.90;15.05;;;3.30;99.90;;;;;;6186692;23;20498;-90
2021/12/27 03:09:57;;;;;;;;;;;;;;;;;;;;;
2021/12/27 03:12:45;;;;;;;;;;;;;;;;;;;;;
2021/12/27 03:16:01;;;;;;;19.48;14.15;;;3.40;99.90;;;;;;6164922;23;20076;-90
2021/12/27 03:21:22;;;;;;;22.63;14.90;;;3.40;99.90;;;;;;6165798;23;20051;-90
2021/12/27 03:23:53;;;;;;;22.13;14.85;;;3.50;99.90;;;;;;6136823;23;20005;-90
2021/12/27 03:26:28;;;;;;;19.92;14.93;;;3.50;99.90;;;;;;6136648;23;20032;-90
2021/12/27 03:32:35;;;;;;;;;;;;;;;;;;;;;
2021/12/27 03:39:16;;;;;;;23.13;16.27;;;3.50;99.90;;;;;;6136046;23;20024;-90
2021/12/27 03:41:53;;;;;;;20.40;15.32;;;3.50;99.90;;;;;;6144766;23;20016;-90
2021/12/27 03:44:31;;;;;;;;;;;;;;;;;;;;;
2021/12/27 03:47:40;;;;;;;20.38;14.50;;;3.50;99.90;;;;;;6189278;23;20084;-90
2021/12/27 03:50:31;;;;;;;;;;;;;;;;;;;;;
2021/12/27 03:53:07;;;;;;;;;;;3.60;99.90;;;;;;6207647;23;19985;-90
2021/12/27 03:56:03;;;;;;;26.73;17.10;;;3.60;99.90;;;;;;6215609;23;19888;-89
2021/12/27 04:02:17;;;;;;;;;;;;;;;;;;;;;
2021/12/27 04:05:00;;;;;;;23.90;17.02;;;3.60;99.90;;;;;;6169854;23;20487;-90
2021/12/27 04:07:48;;;;;;;25.15;16.48;;;3.60;99.90;;;;;;6139438;23;20331;-89
2021/12/27 04:10:21;;;;;;;22.08;14.82;;;3.70;99.90;;;;;;6140899;23;20028;-90
2021/12/27 04:13:28;;;;;;;25.88;17.23;;;3.70;99.90;;;;;;6138515;23;20005;-90
2021/12/27 04:23:01;;;;;;;21.53;16.43;;;3.60;99.90;;;;;;6039989;23;20010;-90
2021/12/27 04:25:53;;;;;;;24.00;16.83;;;3.60;99.90;;;;;;5995058;23;20450;-90
2021/12/27 04:28:39;;;;;;;22.40;16.20;;;3.70;99.90;;;;;;6012743;23;20008;-88
2021/12/27 04:31:58;;;;;;;;;;;;;;;;;;;;;
2021/12/27 04:34:43;;;;;;;23.52;15.35;;;3.70;99.90;;;;;;6188049;23;20088;-89
2021/12/27 04:37:50;;;;;;;24.48;16.88;;;3.70;99.90;;;;;;6134854;23;20032;-90
2021/12/27 04:41:17;;;;;;;29.75;17.45;;;3.70;99.90;;;;;;6123581;23;20013;-89
2021/12/27 04:43:50;;;;;;;24.63;15.32;;;3.80;99.90;;;;;;6157637;23;20041;-90
2021/12/27 04:46:46;;;;;;;;;;;;;;;;;;;;;
2021/12/27 04:49:27;;;;;;;;;;;;;;;;;;;;;
2021/12/27 04:52:23;;;;;;;;;;;;;;;;;;;;;
2021/12/27 04:55:21;;;;;;;;;;;;;;;;;;;;;
2021/12/27 04:58:01;;;;;;;23.50;16.17;;;3.90;99.90;;;;;;6135685;23;20503;-90
2021/12/27 05:01:01;;;;;;;;;;;;;;;;;;;;;
2021/12/27 05:03:43;;;;;;;25.98;16.95;;;3.90;99.90;;;;;;6158406;23;20386;-90
2021/12/27 05:06:17;;;;;;;23.67;16.58;;;3.90;99.90;;;;;;6110572;23;20017;-89
2021/12/27 05:09:20;;;;;;;23.25;16.92;;;3.90;99.90;;;;;;6109392;23;20010;-90
2021/12/27 05:12:43;;;;;;;25.25;17.45;;;4.00;99.90;;;;;;6132467;23;20029;-89
2021/12/27 05:15:30;;;;;;;24.35;16.55;;;4.00;99.90;;;;;;6132262;23;20061;-89
2021/12/27 05:18:24;;;;;;;24.08;16.85;;;4.00;99.90;;;;;;6142525;23;20027;-90
2021/12/27 05:21:32;;;;;;;;;;;;;;;;;;;;;
2021/12/27 05:24:01;;;;;;;26.77;17.23;;;4.00;99.90;;;;;;6185006;23;20078;-89
2021/12/27 05:26:50;;;;;;;28.00;18.88;;;4.00;99.90;;;;;;6155058;23;20026;-89
2021/12/27 05:29:35;;;;;;;;;;;;;;;;;;;;;
2021/12/27 05:32:07;;;;;;;25.92;17.77;;;4.10;99.90;;;;;;6158433;23;20080;-89
2021/12/27 05:35:20;;;;;;;22.27;15.63;;;4.10;99.90;;;;;;6132708;23;20057;-89
2021/12/27 05:37:59;;;;;;;;;;;;;;;;;;;;;
2021/12/27 05:40:47;;;;;;;25.40;17.83;;;4.10;99.90;;;;;;6158037;23;20088;-89
2021/12/27 05:43:34;;;;;;;;;;;;;;;;;;;;;
2021/12/27 05:46:07;;;;;;;27.50;18.85;;;4.20;99.90;;;;;;6158384;23;20080;-89
2021/12/27 05:49:01;;;;;;;23.10;17.30;;;4.20;99.90;;;;;;6132219;23;20009;-90
2021/12/27 05:54:43;;;;;;;21.70;15.57;;;4.20;99.90;;;;;;6079220;23;20040;-89
2021/12/27 05:57:12;;;;;;;26.83;18.45;;;4.20;99.90;;;;;;6131173;23;20092;-90
2021/12/27 05:59:59;;;;;;;23.63;16.95;;;4.20;99.90;;;;;;6130841;23;20154;-88
2021/12/27 06:03:05;;;;;;;22.92;16.27;;;4.20;99.90;;;;;;6108931;23;20002;-88
2021/12/27 06:05:51;;;;;;;24.77;16.52;;;4.20;99.90;;;;;;6131766;23;20017;-88
2021/12/27 06:08:21;;;;;;;26.38;17.95;;;4.20;99.90;;;;;;6109082;23;20037;-88
2021/12/27 06:10:59;;;;;;;25.08;17.75;;;4.20;99.90;;;;;;6157250;23;20004;-89
2021/12/27 06:13:47;;;;;;;24.20;17.13;;;4.30;99.90;;;;;;6108600;23;20005;-89
2021/12/27 06:16:45;;;;;;;24.10;16.77;;;4.20;99.90;;;;;;6109922;23;20081;-89
2021/12/27 06:19:20;;;;;;;23.23;15.65;;;4.20;99.90;;;;;;6109716;23;20013;-88
2021/12/27 06:25:00;;;;;;;;;;;;;;;;;;;;;
2021/12/27 06:27:36;;;;;;;22.77;15.82;;;4.20;99.90;;;;;;6157038;23;20229;-89
2021/12/27 06:30:23;;;;;;;22.08;16.08;;;4.20;99.90;;;;;;6131760;23;19998;-90
2021/12/27 06:32:56;;;;;;;19.80;15.30;;;4.30;99.90;;;;;;6132087;23;20001;-89
2021/12/27 06:35:34;;;;;;;;;;;;;;;;;;;;;
2021/12/27 06:38:25;;;;;;;19.92;14.90;;;4.20;99.90;;;;;;6157863;23;20373;-90
2021/12/27 06:40:56;;;;;;;18.33;14.13;;;4.20;99.90;;;;;;6132565;23;20372;-89
2021/12/27 06:43:37;;;;;;;17.50;12.80;;;4.30;99.90;;;;;;6134055;23;20029;-92
2021/12/27 06:46:26;;;;;;;18.48;13.23;;;4.30;99.90;;;;;;6158689;23;20053;-90
2021/12/27 06:49:06;;;;;;;18.20;13.88;;;4.30;99.90;;;;;;6155909;23;19986;-88
2021/12/27 06:51:49;;;;;;;17.58;13.65;;;4.30;99.90;;;;;;6135441;23;20068;-91
2021/12/27 06:54:54;;;;;;;16.50;12.40;;;4.30;99.90;;;;;;6112808;23;20009;-90
2021/12/27 06:57:30;;;;;;;18.17;13.98;;;4.30;99.90;;;;;;6132287;23;20029;-90
2021/12/27 07:00:18;;;;;;;17.65;13.30;;;4.30;99.90;;;;;;6085075;23;20097;-88
2021/12/27 07:05:49;;;;;;;16.85;12.18;;;4.30;99.90;;;;;;6063383;23;20076;-88
2021/12/27 07:08:19;;;;;;;16.50;12.73;;;4.30;99.90;;;;;;6084450;23;20411;-89
2021/12/27 07:10:53;;;;;;;17.83;13.75;;;4.40;99.90;;;;;;6132276;23;19997;-91
2021/12/27 07:13:46;;;;;;;17.33;13.27;;;4.40;99.90;;;;;;6108277;23;20017;-90
2021/12/27 07:19:48;;;;;;;21.60;15.25;;;4.40;99.90;;;;;;6157169;23;20004;-89
2021/12/27 07:22:34;;;;;;;;;;;;;;;;;;;;;
2021/12/27 07:25:10;;;;;;;18.95;14.77;;;4.50;99.90;;;;;;6156737;23;20500;-89
2021/12/27 07:27:48;;;;;;;20.25;15.25;;;4.50;99.90;;;;;;6131074;23;20040;-89
2021/12/27 07:30:16;;;;;;;20.95;15.77;;;4.60;99.90;;;;;;6131057;23;19998;-89
2021/12/27 07:32:46;;;;;;;21.95;16.15;;;4.60;99.90;;;;;;6130730;23;20002;-88
2021/12/27 07:35:16;;;;;;;18.85;14.63;;;4.60;99.90;;;;;;6130889;23;20439;-88
2021/12/27 07:37:49;;;;;;;20.85;15.52;;;4.70;99.90;;;;;;6134320;23;20061;-88
2021/12/27 07:40:20;;;;;;;20.30;14.57;;;4.70;99.90;;;;;;6184609;23;20044;-88
2021/12/27 07:42:55;;;;;;;23.08;16.63;;;4.70;99.90;;;;;;6161034;23;20005;-88
2021/12/27 07:48:41;;;;;;;20.63;15.02;;;4.70;99.90;;;;;;6165166;23;20040;-89
2021/12/27 07:51:38;;;;;;;19.52;15.23;;;4.70;99.90;;;;;;6185976;23;20001;-91
2021/12/27 07:54:14;;;;;;;19.90;15.05;;;4.70;99.90;;;;;;6166715;23;20037;-90
2021/12/27 07:56:45;;;;;;;22.55;15.35;;;4.70;99.90;;;;;;6187109;23;20008;-90
2021/12/27 07:59:16;;;;;;;18.58;14.50;;;4.70;99.90;;;;;;6162364;23;20419;-89
2021/12/27 08:02:41;;;;;;;;;;;;;;;;;;;;;
2021/12/27 08:08:56;;;;;;;;;;;;;;;;;;;;;
2021/12/27 08:12:03;;;;;;;21.65;16.23;;;4.80;99.90;;;;;;6196352;23;20016;-91
2021/12/27 08:14:49;;;;;;;22.92;16.85;;;4.80;99.90;;;;;;6192495;23;19989;-95
2021/12/27 08:27:26;;;;;;;25.42;17.65;;;4.90;99.90;;;;;;6123315;23;20024;-91
2021/12/27 08:30:04;;;;;;;26.58;17.92;;;4.90;99.90;;;;;;6186279;23;20063;-89
2021/12/27 08:33:16;;;;;;;22.23;16.30;;;4.90;99.90;;;;;;6186834;23;20403;-89
2021/12/27 08:35:47;;;;;;;22.17;15.40;;;4.90;99.90;;;;;;6186124;23;20016;-88
2021/12/27 08:42:07;;;;;;;19.67;14.25;;;4.90;99.90;;;;;;6076033;23;20355;-88
2021/12/27 08:44:58;;;;;;;21.17;14.73;;;4.90;99.90;;;;;;6096222;23;20007;-87
2021/12/27 08:47:30;;;;;;;19.38;14.73;;;4.90;99.90;;;;;;6069465;23;20049;-87
2021/12/27 08:50:21;;;;;;;18.13;13.43;;;4.90;99.90;;;;;;6137480;23;20005;-89
2021/12/27 08:53:05;;;;;;;19.00;13.68;;;4.90;99.90;;;;;;6187627;23;20001;-88
2021/12/27 08:55:36;;;;;;;17.17;12.55;;;4.90;99.90;;;;;;6166224;23;20125;-88
2021/12/27 08:58:14;;;;;;;17.80;12.77;;;5.00;99.90;;;;;;6187594;23;20001;-88
2021/12/27 09:01:12;;;;;;;;;;;;;;;;;;;;;
2021/12/27 09:04:04;;;;;;;18.73;12.68;;;5.00;99.90;;;;;;6132055;23;20311;-89
2021/12/27 09:06:33;;;;;;;19.17;14.13;;;5.00;99.90;;;;;;6185219;23;20092;-88
2021/12/27 09:09:04;;;;;;;18.23;13.57;;;5.10;99.90;;;;;;6187077;23;20407;-87
2021/12/27 09:11:44;;;;;;;17.50;13.45;;;5.10;99.90;;;;;;6160533;23;20030;-88
2021/12/27 09:14:16;;;;;;;18.20;13.85;;;5.10;99.90;;;;;;6163403;23;20013;-88
2021/12/27 09:16:44;;;;;;;19.23;13.00;;;5.10;99.90;;;;;;6185034;23;20005;-87
2021/12/27 09:19:12;;;;;;;15.50;11.93;;;5.10;99.90;;;;;;6185427;23;20449;-88
2021/12/27 09:21:38;;;;;;;15.63;12.23;;;5.10;99.90;;;;;;6185441;23;20002;-89
2021/12/27 09:24:13;;;;;;;18.52;12.20;;;5.10;99.90;;;;;;6182886;23;20005;-88
2021/12/27 09:29:36;;;;;;;;;;;5.10;99.90;;;;;;6187043;23;20440;-89
2021/12/27 09:35:19;;;;;;;16.70;12.23;;;5.10;99.90;;;;;;6171873;23;20005;-91
2021/12/27 09:38:23;;;;;;;17.15;12.90;;;5.20;99.90;;;;;;6191138;23;20005;-93
2021/12/27 09:40:54;;;;;;;19.48;14.32;;;5.20;99.90;;;;;;6206187;23;20114;-89
2021/12/27 09:44:13;;;;;;;;;;;;;;;;;;;;;
2021/12/27 09:47:22;;;;;;;;;;;;;;;;;;;;;
2021/12/27 09:50:36;;;;;;;;;;;;;;;;;;;;;
2021/12/27 10:03:18;;;;;;;;;;;;;;;;;;;;;
2021/12/27 10:06:35;;;;;;;;;;;;;;;;;;;;;
2021/12/27 10:10:06;;;;;;;22.55;15.60;;;5.40;99.90;;;;;;6099685;23;19901;-90
2021/12/27 10:12:38;;;;;;;18.98;14.13;;;5.40;99.90;;;;;;6121795;23;20002;-90
2021/12/27 10:16:15;;;;;;;;;;;;;;;;;;;;;
2021/12/27 10:23:18;;;;;;;22.77;16.58;;;5.60;99.90;;;;;;6012186;23;20358;-91
2021/12/27 10:29:32;;;;;;;19.35;13.73;;;5.60;99.90;;;;;;5999539;23;20451;-89
2021/12/27 10:32:23;;;;;;;18.25;14.13;;;5.70;99.90;;;;;;5986185;23;20090;-89
2021/12/27 10:35:27;;;;;;;18.23;13.93;;;5.70;99.90;;;;;;5964266;23;20435;-89
2021/12/27 10:38:43;;;;;;;;;;;;;;;;;;;;;
2021/12/27 10:45:39;;;;;;;18.08;13.52;;;5.90;99.90;;;;;;5997742;23;20328;-91
2021/12/27 10:51:29;;;;;;;17.63;13.25;;;5.90;99.90;;;;;;6131520;23;20002;-89
2021/12/27 10:54:01;;;;;;;18.00;14.35;;;6.00;99.90;;;;;;6086153;23;20041;-89
2021/12/27 10:57:02;;;;;;;19.83;14.07;;;6.00;99.90;;;;;;6131801;23;20005;-89
2021/12/27 10:59:53;;;;;;;18.38;14.20;;;6.00;99.90;;;;;;6130801;23;20005;-88
2021/12/27 11:02:19;;;;;;;20.75;15.05;;;6.10;99.90;;;;;;6108006;23;20002;-89
2021/12/27 11:05:07;;;;;;;21.15;15.40;;;6.10;99.90;;;;;;6131391;23;20013;-89
2021/12/27 11:07:41;;;;;;;23.35;15.18;;;6.10;99.90;;;;;;6142071;23;20029;-90
2021/12/27 11:10:13;;;;;;;19.38;15.20;;;6.20;99.90;;;;;;6158195;23;20033;-91
2021/12/27 11:12:51;;;;;;;23.65;15.57;;;6.20;99.90;;;;;;6158303;23;19989;-88
2021/12/27 11:15:37;;;;;;;19.15;14.77;;;6.30;99.90;;;;;;6135667;23;20013;-90
2021/12/27 11:18:28;;;;;;;21.20;15.15;;;6.30;99.90;;;;;;6141050;23;20056;-91
2021/12/27 11:21:01;;;;;;;;;;;6.40;99.90;;;;;;6110714;23;20084;-89
2021/12/27 11:24:03;;;;;;;;;;;;;;;;;;;;;
2021/12/27 11:26:33;;;;;;;15.55;12.27;;;6.40;99.90;;;;;;6152504;23;20084;-90
2021/12/27 11:29:22;;;;;;;15.60;12.33;;;6.40;99.90;;;;;;6162054;23;20005;-89
2021/12/27 11:32:15;;;;;;;15.45;11.68;;;6.40;99.90;;;;;;6185389;23;19998;-90
2021/12/27 11:35:00;;;;;;;16.10;12.27;;;6.50;99.90;;;;;;6185446;23;20051;-89
2021/12/27 11:38:01;;;;;;;;;;;;;;;;;;;;;
2021/12/27 11:40:53;;;;;;;15.93;11.63;;;6.50;99.90;;;;;;6187024;23;20076;-88
2021/12/27 11:43:23;;;;;;;;;;;6.50;99.90;;;;;;6161134;23;20013;-90
2021/12/27 11:46:16;;;;;;;19.67;14.32;;;6.60;99.90;;;;;;6184929;23;19939;-90
2021/12/27 11:49:11;;;;;;;18.67;13.80;;;6.60;99.90;;;;;;6185370;23;19997;-89
2021/12/27 11:51:40;;;;;;;18.55;13.00;;;6.60;99.90;;;;;;6167103;23;20025;-90
2021/12/27 11:54:33;;;;;;;13.27;10.68;;;6.70;99.90;;;;;;6184574;23;20005;-90
2021/12/27 11:57:01;;;;;;;13.50;10.05;;;6.70;99.90;;;;;;6185099;23;20004;-89
2021/12/27 11:59:37;;;;;;;11.68;8.88;;;6.70;99.90;;;;;;6185794;23;20008;-89
2021/12/27 12:02:34;;;;;;;12.52;9.43;;;6.70;99.90;;;;;;6161168;23;20088;-89
2021/12/27 12:05:05;;;;;;;11.00;8.68;;;6.80;99.90;;;;;;6187376;23;20008;-90
2021/12/27 12:10:44;;;;;;;;;;;;;;;;;;;;;
2021/12/27 12:13:45;;;;;;;13.68;9.75;;;6.90;99.90;;;;;;6186810;23;20088;-91
2021/12/27 12:16:21;;;;;;;13.48;10.32;;;6.90;99.90;;;;;;6126700;23;20080;-89
2021/12/27 12:18:55;;;;;;;12.18;9.88;;;7.00;99.90;;;;;;6187276;23;20006;-89
2021/12/27 12:21:36;;;;;;;13.15;10.18;;;7.00;99.90;;;;;;6187286;23;20005;-89
2021/12/27 12:24:13;;;;;;;14.77;9.23;;;7.10;99.90;;;;;;6187002;23;20013;-90
2021/12/27 12:27:05;;;;;;;12.35;9.27;;;7.10;99.90;;;;;;6186946;23;20013;-89
2021/12/27 12:29:44;;;;;;;12.73;9.23;;;7.10;99.90;;;;;;6187635;23;20004;-89
2021/12/27 12:32:15;;;;;;;10.40;8.57;;;7.20;99.90;;;;;;6186900;23;20427;-90
2021/12/27 12:34:49;;;;;;;11.68;8.60;;;7.10;99.90;;;;;;6187025;23;20436;-90
2021/12/27 12:37:19;;;;;;;10.95;8.40;;;7.10;99.90;;;;;;6188582;23;19997;-90
2021/12/27 12:39:50;;;;;;;11.77;9.10;;;7.10;99.90;;;;;;6207741;23;20013;-89
2021/12/27 12:42:25;;;;;;;13.02;9.55;;;7.20;99.90;;;;;;6214476;23;20020;-89
2021/12/27 12:45:12;;;;;;;10.73;8.95;;;7.20;99.90;;;;;;6213585;23;20017;-90
2021/12/27 12:48:13;;;;;;;11.85;9.02;;;7.20;99.90;;;;;;6209300;23;20007;-89
2021/12/27 12:50:51;;;;;;;;;;;;;;;;;;;;;
2021/12/27 12:53:38;;;;;;;11.98;8.73;;;7.20;99.90;;;;;;6187157;23;20079;-89
2021/12/27 12:56:07;;;;;;;11.52;8.80;;;7.20;99.90;;;;;;6165785;23;20013;-90
2021/12/27 12:58:40;;;;;;;12.98;8.93;;;7.20;99.90;;;;;;6186733;23;20005;-89
2021/12/27 13:01:26;;;;;;;13.20;9.20;;;7.20;99.90;;;;;;6186647;23;20009;-89
2021/12/27 13:04:18;;;;;;;;;;;;;;;;;;;;;
2021/12/27 13:06:54;;;;;;;11.75;8.43;;;7.20;99.90;;;;;;6186565;23;20072;-89
2021/12/27 13:09:59;;;;;;;;;;;;;;;;;;;;;
2021/12/27 13:12:39;;;;;;;;;;;;;;;;;;;;;
2021/12/27 13:15:39;;;;;;;;;;;;;;;;;;;;;
2021/12/27 13:18:35;;;;;;;9.90;8.20;;;7.30;99.90;;;;;;6181026;23;20064;-91
2021/12/27 13:21:24;;;;;;;10.07;8.10;;;7.30;99.90;;;;;;6186108;23;20012;-91
2021/12/27 13:23:59;;;;;;;10.18;8.25;;;7.30;99.90;;;;;;6186382;23;20363;-91
2021/12/27 13:26:38;;;;;;;10.38;8.13;;;7.40;99.90;;;;;;6185618;23;20041;-90
2021/12/27 13:29:25;;;;;;;9.80;8.38;;;7.40;99.90;;;;;;6163762;23;20037;-90
2021/12/27 13:32:32;;;;;;;13.65;10.25;;;7.40;99.90;;;;;;6186233;23;20005;-90
2021/12/27 13:35:13;;;;;;;9.65;8.10;;;7.40;99.90;;;;;;6186032;23;20043;-89
2021/12/27 13:37:52;;;;;;;;;;;;;;;;;;;;;
2021/12/27 13:40:21;;;;;;;11.45;8.68;;;7.40;99.90;;;;;;6186356;23;20080;-90
2021/12/27 13:42:50;;;;;;;11.90;9.48;;;7.40;99.90;;;;;;6185909;23;20542;-91
2021/12/27 13:45:54;;;;;;;11.50;8.70;;;7.50;99.90;;;;;;6185670;23;20009;-89
2021/12/27 13:48:47;;;;;;;10.05;8.13;;;7.50;99.90;;;;;;6185511;23;20013;-90
2021/12/27 13:51:22;;;;;;;9.32;7.80;;;7.50;99.90;;;;;;6186617;23;20032;-89
2021/12/27 13:53:56;;;;;;;11.35;9.35;;;7.50;99.90;;;;;;6161590;23;20009;-90
2021/12/27 13:56:32;;;;;;;11.35;8.65;;;7.50;99.90;;;;;;6186467;23;20008;-90
2021/12/27 13:59:23;;;;;;;9.43;8.18;;;7.50;99.90;;;;;;6187657;23;20450;-90
2021/12/27 14:02:22;;;;;;;10.55;8.43;;;7.50;99.90;;;;;;6188070;23;20423;-90
2021/12/27 14:05:13;;;;;;;;;;;;;;;;;;;;;
2021/12/27 14:08:12;;;;;;;13.00;9.55;;;7.50;99.90;;;;;;6189743;23;20053;-91
2021/12/27 14:11:10;;;;;;;11.35;8.70;;;7.50;99.90;;;;;;6177532;23;20008;-89
2021/12/27 14:13:52;;;;;;;10.38;8.57;;;7.50;99.90;;;;;;6212194;23;19992;-90
2021/12/27 14:16:37;;;;;;;11.52;9.07;;;7.50;99.90;;;;;;6212652;23;20028;-91
2021/12/27 14:19:37;;;;;;;9.70;8.40;;;7.50;99.90;;;;;;6209057;23;20016;-90
2021/12/27 14:22:17;;;;;;;9.18;7.50;;;7.50;99.90;;;;;;6188531;23;20024;-89
2021/12/27 14:24:53;;;;;;;10.38;8.52;;;7.50;99.90;;;;;;6188175;23;20013;-91
2021/12/27 14:28:00;;;;;;;9.68;8.40;;;7.50;99.90;;;;;;6184869;23;20067;-91
2021/12/27 14:30:32;;;;;;;10.18;8.40;;;7.60;99.90;;;;;;6186361;23;20020;-93
2021/12/27 14:33:12;;;;;;;10.10;8.27;;;7.50;99.90;;;;;;6186705;23;20008;-90
2021/12/27 14:35:40;;;;;;;12.43;9.05;;;7.50;99.90;;;;;;6186497;23;20001;-92
2021/12/27 14:38:21;;;;;;;11.73;8.35;;;7.50;99.90;;;;;;6186146;23;20011;-91
2021/12/27 14:41:33;;;;;;;10.93;9.15;;;7.50;99.90;;;;;;6186225;23;20024;-91
2021/12/27 14:44:12;;;;;;;10.60;8.52;;;7.60;99.90;;;;;;6185839;23;20076;-93
2021/12/27 14:47:04;;;;;;;10.88;8.68;;;7.60;99.90;;;;;;6161621;23;20013;-91
2021/12/27 14:49:55;;;;;;;11.13;9.05;;;7.50;99.90;;;;;;6185487;23;20447;-90
2021/12/27 14:52:23;;;;;;;10.18;8.45;;;7.60;99.90;;;;;;6185727;23;20079;-91
2021/12/27 14:55:15;;;;;;;11.30;9.18;;;7.60;99.90;;;;;;6186050;23;20064;-92
2021/12/27 14:57:50;;;;;;;10.85;8.32;;;7.60;99.90;;;;;;6187650;23;20315;-92
2021/12/27 15:00:34;;;;;;;10.65;8.38;;;7.60;99.90;;;;;;6185600;23;20005;-91
2021/12/27 15:03:35;;;;;;;;;;;;;;;;;;;;;
2021/12/27 15:06:16;;;;;;;9.57;8.13;;;7.60;99.90;;;;;;6192612;23;20040;-90
2021/12/27 15:08:56;;;;;;;10.57;8.70;;;7.60;99.90;;;;;;6188148;23;20001;-92
2021/12/27 15:11:34;;;;;;;12.60;9.05;;;7.60;99.90;;;;;;6185762;23;20001;-91
2021/12/27 15:14:30;;;;;;;11.02;8.95;;;7.60;99.90;;;;;;6163329;23;20013;-91
2021/12/27 15:17:06;;;;;;;13.13;9.57;;;7.60;99.90;;;;;;6172294;23;20001;-91
2021/12/27 15:19:41;;;;;;;11.10;9.15;;;7.60;99.90;;;;;;6185387;23;20050;-90
2021/12/27 15:22:33;;;;;;;10.90;8.57;;;7.60;99.90;;;;;;6162833;23;20005;-90
2021/12/27 15:25:14;;;;;;;;;;;7.60;99.90;;;;;;6176508;23;20100;-91
2021/12/27 15:27:47;;;;;;;10.20;8.90;;;7.60;99.90;;;;;;6186006;23;19916;-91
2021/12/27 15:30:18;;;;;;;11.05;9.10;;;7.60;99.90;;;;;;6186049;23;20335;-91
2021/12/27 15:32:44;;;;;;;11.27;9.48;;;7.60;99.90;;;;;;6162592;23;20423;-90
2021/12/27 15:35:25;;;;;;;11.68;9.45;;;7.70;99.90;;;;;;6187588;23;20104;-91
2021/12/27 15:37:54;;;;;;;12.52;10.43;;;7.60;99.90;;;;;;6192198;23;19998;-93
2021/12/27 15:40:21;;;;;;;11.60;9.63;;;7.70;99.90;;;;;;6172302;23;20005;-92
2021/12/27 15:42:49;;;;;;;12.23;9.40;;;7.70;99.90;;;;;;6207923;23;20001;-91
2021/12/27 15:45:17;;;;;;;13.15;10.20;;;7.60;99.90;;;;;;6212175;23;20021;-89
2021/12/27 15:47:46;;;;;;;10.23;8.85;;;7.70;99.90;;;;;;6209307;23;20009;-91
2021/12/27 15:50:13;;;;;;;10.13;8.82;;;7.70;99.90;;;;;;6204669;23;19992;-91
2021/12/27 15:52:40;;;;;;;12.45;9.10;;;7.70;99.90;;;;;;6191071;23;20001;-91
2021/12/27 15:55:08;;;;;;;14.30;11.70;;;7.70;99.90;;;;;;6161833;23;20115;-92
2021/12/27 15:57:38;;;;;;;13.13;11.02;;;7.60;99.90;;;;;;6185630;23;20005;-93
2021/12/27 16:00:09;;;;;;;18.52;13.68;;;7.60;99.90;;;;;;6162094;23;20323;-91
2021/12/27 16:02:42;;;;;;;17.70;13.50;;;7.60;99.90;;;;;;6186249;23;20005;-91
2021/12/27 16:05:08;;;;;;;16.83;13.10;;;7.60;99.90;;;;;;6186206;23;20005;-90
2021/12/27 16:07:44;;;;;;;;;;;;;;;;;;;;;
2021/12/27 16:10:22;;;;;;;17.02;12.65;;;7.60;99.90;;;;;;6187608;23;20080;-92
2021/12/27 16:13:00;;;;;;;16.90;12.32;;;7.60;99.90;;;;;;6186081;23;20012;-91
2021/12/27 16:15:36;;;;;;;17.10;12.52;;;7.60;99.90;;;;;;6160967;23;20100;-91
2021/12/27 16:18:17;;;;;;;;;;;;;;;;;;;;;
2021/12/27 16:20:59;;;;;;;13.32;11.27;;;7.60;99.90;;;;;;6185950;23;20089;-91
2021/12/27 16:23:45;;;;;;;;;;;7.60;99.90;;;;;;6185513;23;20005;-91
2021/12/27 16:26:29;;;;;;;14.88;12.30;;;7.60;99.90;;;;;;6185391;23;20298;-91
2021/12/27 16:29:02;;;;;;;15.32;11.50;;;7.50;99.90;;;;;;6185367;23;20012;-92
2021/12/27 16:32:01;;;;;;;14.95;12.35;;;7.60;99.90;;;;;;6185293;23;20001;-91
2021/12/27 16:34:32;;;;;;;17.88;13.20;;;7.60;99.90;;;;;;6166698;23;20145;-91
2021/12/27 16:37:04;;;;;;;16.33;12.15;;;7.60;99.90;;;;;;6161533;23;20051;-90
2021/12/27 16:39:44;;;;;;;16.95;12.88;;;7.60;99.90;;;;;;6184508;23;20147;-90
2021/12/27 16:42:40;;;;;;;14.70;11.48;;;7.60;99.90;;;;;;6185807;23;20474;-88
2021/12/27 16:45:09;;;;;;;16.08;11.48;;;7.60;99.90;;;;;;6185031;23;20009;-89
2021/12/27 16:47:36;;;;;;;14.23;10.43;;;7.60;99.90;;;;;;6160068;23;20052;-88
2021/12/27 16:50:28;;;;;;;15.05;12.32;;;7.60;99.90;;;;;;6184986;23;20016;-92
2021/12/27 16:53:06;;;;;;;;;;;;;;;;;;;;;
2021/12/27 16:55:43;;;;;;;14.25;11.20;;;7.50;99.90;;;;;;6187166;23;20096;-89
2021/12/27 17:02:01;;;;;;;;;;;;;;;;;;;;;
2021/12/27 17:04:54;;;;;;;;;;;;;;;;;;;;;
2021/12/27 17:07:51;;;;;;;;;;;;;;;;;;;;;
2021/12/27 17:10:35;;;;;;;10.18;8.73;;;7.50;99.90;;;;;;6136937;23;20084;-89
2021/12/27 17:13:22;;;;;;;;;;;;;;;;;;;;;
2021/12/27 17:16:29;;;;;;;11.15;8.32;;;7.50;99.90;;;;;;6189618;23;20088;-90
2021/12/27 17:19:10;;;;;;;9.73;7.80;;;7.60;99.90;;;;;;6214314;23;20009;-90
2021/12/27 17:21:53;;;;;;;12.05;9.02;;;7.50;99.90;;;;;;6188549;23;20016;-91
2021/12/27 17:25:00;;;;;;;;;;;;;;;;;;;;;
2021/12/27 17:27:44;;;;;;;9.07;7.63;;;7.60;99.90;;;;;;6193775;23;20032;-89
2021/12/27 17:34:16;;;;;;;10.18;7.72;;;7.60;99.90;;;;;;6171737;23;20005;-90
2021/12/27 17:36:59;;;;;;;;;;;;;;;;;;;;;
2021/12/27 17:39:40;;;;;;;9.13;7.38;;;7.50;99.90;;;;;;6188177;23;20487;-89
2021/12/27 17:42:14;;;;;;;10.65;7.85;;;7.50;99.90;;;;;;6161659;23;20032;-89
2021/12/27 17:45:26;;;;;;;;;;;;;;;;;;;;;
2021/12/27 17:51:02;;;;;;;12.00;8.70;;;7.50;99.90;;;;;;6125540;23;19960;-92
2021/12/27 17:54:40;;;;;;;11.43;8.25;;;7.50;99.90;;;;;;6101328;23;20006;-90
2021/12/27 18:07:04;;;;;;;9.88;7.38;;;7.40;99.90;;;;;;6184082;23;20009;-89